sensor_id;sensor_type;location;lat;lon;timestamp;P1;durP1;ratioP1;P2;durP2;ratioP2
64894;SDS011;51588;53.702;10.208;2023-12-20T00:02:05;3.70;;;1.90;;
64894;SDS011;51588;53.702;10.208;2023-12-20T00:04:31;5.33;;;2.60;;
64894;SDS011;51588;53.702;10.208;2023-12-20T00:06:58;4.70;;;2.20;;
64894;SDS011;51588;53.702;10.208;2023-12-20T00:09:24;5.63;;;2.20;;
64894;SDS011;51588;53.702;10.208;2023-12-20T00:11:51;4.20;;;2.17;;
64894;SDS011;51588;53.702;10.208;2023-12-20T00:14:18;5.40;;;2.30;;
64894;SDS011;51588;53.702;10.208;2023-12-20T00:16:45;4.10;;;2.10;;
64894;SDS011;51588;53.702;10.208;2023-12-20T00:19:11;3.60;;;2.10;;
64894;SDS011;51588;53.702;10.208;2023-12-20T00:21:38;4.90;;;1.93;;
64894;SDS011;51588;53.702;10.208;2023-12-20T00:24:04;6.27;;;2.77;;
64894;SDS011;51588;53.702;10.208;2023-12-20T00:26:31;3.60;;;1.90;;
64894;SDS011;51588;53.702;10.208;2023-12-20T00:28:57;4.60;;;1.90;;
64894;SDS011;51588;53.702;10.208;2023-12-20T00:31:25;4.00;;;2.20;;
64894;SDS011;51588;53.702;10.208;2023-12-20T00:33:51;3.30;;;1.97;;
64894;SDS011;51588;53.702;10.208;2023-12-20T00:36:18;4.00;;;1.70;;
64894;SDS011;51588;53.702;10.208;2023-12-20T00:38:44;3.83;;;2.00;;
64894;SDS011;51588;53.702;10.208;2023-12-20T00:41:11;3.93;;;2.27;;
64894;SDS011;51588;53.702;10.208;2023-12-20T00:43:37;3.37;;;1.80;;
64894;SDS011;51588;53.702;10.208;2023-12-20T00:46:03;4.83;;;2.13;;
64894;SDS011;51588;53.702;10.208;2023-12-20T00:48:32;3.13;;;1.90;;
64894;SDS011;51588;53.702;10.208;2023-12-20T00:50:58;4.90;;;2.30;;
64894;SDS011;51588;53.702;10.208;2023-12-20T00:53:25;3.23;;;1.93;;
64894;SDS011;51588;53.702;10.208;2023-12-20T00:55:51;4.50;;;2.23;;
64894;SDS011;51588;53.702;10.208;2023-12-20T00:58:17;3.10;;;1.90;;
64894;SDS011;51588;53.702;10.208;2023-12-20T01:00:44;4.90;;;2.10;;
64894;SDS011;51588;53.702;10.208;2023-12-20T01:03:10;3.00;;;1.80;;
64894;SDS011;51588;53.702;10.208;2023-12-20T01:05:38;2.77;;;1.60;;
64894;SDS011;51588;53.702;10.208;2023-12-20T01:08:05;2.60;;;1.57;;
64894;SDS011;51588;53.702;10.208;2023-12-20T01:10:31;3.30;;;1.70;;
64894;SDS011;51588;53.702;10.208;2023-12-20T01:12:58;3.00;;;1.70;;
64894;SDS011;51588;53.702;10.208;2023-12-20T01:15:24;3.17;;;1.80;;
64894;SDS011;51588;53.702;10.208;2023-12-20T01:17:51;2.53;;;1.40;;
64894;SDS011;51588;53.702;10.208;2023-12-20T01:20:17;2.33;;;1.60;;
64894;SDS011;51588;53.702;10.208;2023-12-20T01:22:46;4.30;;;1.80;;
64894;SDS011;51588;53.702;10.208;2023-12-20T01:25:13;5.23;;;1.93;;
64894;SDS011;51588;53.702;10.208;2023-12-20T01:27:39;3.00;;;1.50;;
64894;SDS011;51588;53.702;10.208;2023-12-20T01:30:06;5.50;;;2.00;;
64894;SDS011;51588;53.702;10.208;2023-12-20T01:32:32;1.60;;;1.47;;
64894;SDS011;51588;53.702;10.208;2023-12-20T01:34:59;3.60;;;2.17;;
64894;SDS011;51588;53.702;10.208;2023-12-20T01:37:25;5.63;;;1.50;;
64894;SDS011;51588;53.702;10.208;2023-12-20T01:39:55;4.57;;;1.90;;
64894;SDS011;51588;53.702;10.208;2023-12-20T01:42:22;2.73;;;1.70;;
64894;SDS011;51588;53.702;10.208;2023-12-20T01:44:48;3.97;;;2.00;;
64894;SDS011;51588;53.702;10.208;2023-12-20T01:47:14;2.97;;;1.47;;
64894;SDS011;51588;53.702;10.208;2023-12-20T01:49:41;2.90;;;1.50;;
64894;SDS011;51588;53.702;10.208;2023-12-20T01:52:07;6.83;;;1.77;;
64894;SDS011;51588;53.702;10.208;2023-12-20T01:54:34;4.90;;;1.83;;
64894;SDS011;51588;53.702;10.208;2023-12-20T01:57:03;3.63;;;1.67;;
64894;SDS011;51588;53.702;10.208;2023-12-20T01:59:29;4.00;;;1.57;;
64894;SDS011;51588;53.702;10.208;2023-12-20T02:01:56;2.87;;;1.50;;
64894;SDS011;51588;53.702;10.208;2023-12-20T02:04:23;2.40;;;1.40;;
64894;SDS011;51588;53.702;10.208;2023-12-20T02:06:50;2.63;;;1.20;;
64894;SDS011;51588;53.702;10.208;2023-12-20T02:09:18;4.20;;;1.93;;
64894;SDS011;51588;53.702;10.208;2023-12-20T02:11:44;2.30;;;1.40;;
64894;SDS011;51588;53.702;10.208;2023-12-20T02:14:12;4.07;;;1.80;;
64894;SDS011;51588;53.702;10.208;2023-12-20T02:16:39;2.83;;;1.40;;
64894;SDS011;51588;53.702;10.208;2023-12-20T02:19:05;3.30;;;1.60;;
64894;SDS011;51588;53.702;10.208;2023-12-20T02:21:37;3.17;;;1.60;;
64894;SDS011;51588;53.702;10.208;2023-12-20T02:24:03;2.40;;;1.50;;
64894;SDS011;51588;53.702;10.208;2023-12-20T02:26:30;1.83;;;1.40;;
64894;SDS011;51588;53.702;10.208;2023-12-20T02:28:57;3.53;;;1.73;;
64894;SDS011;51588;53.702;10.208;2023-12-20T02:31:24;3.20;;;1.40;;
64894;SDS011;51588;53.702;10.208;2023-12-20T02:33:51;2.63;;;1.50;;
64894;SDS011;51588;53.702;10.208;2023-12-20T02:36:17;3.87;;;1.67;;
64894;SDS011;51588;53.702;10.208;2023-12-20T02:38:45;4.10;;;2.23;;
64894;SDS011;51588;53.702;10.208;2023-12-20T02:41:12;3.60;;;1.63;;
64894;SDS011;51588;53.702;10.208;2023-12-20T02:43:38;4.53;;;1.80;;
64894;SDS011;51588;53.702;10.208;2023-12-20T02:46:05;3.60;;;1.50;;
64894;SDS011;51588;53.702;10.208;2023-12-20T02:48:31;2.90;;;1.40;;
64894;SDS011;51588;53.702;10.208;2023-12-20T02:50:58;3.93;;;1.40;;
64894;SDS011;51588;53.702;10.208;2023-12-20T02:53:24;4.57;;;1.50;;
64894;SDS011;51588;53.702;10.208;2023-12-20T02:55:52;2.80;;;1.40;;
64894;SDS011;51588;53.702;10.208;2023-12-20T02:58:18;2.13;;;1.37;;
64894;SDS011;51588;53.702;10.208;2023-12-20T03:00:45;2.70;;;1.50;;
64894;SDS011;51588;53.702;10.208;2023-12-20T03:03:11;4.20;;;1.60;;
64894;SDS011;51588;53.702;10.208;2023-12-20T03:05:37;3.10;;;1.63;;
64894;SDS011;51588;53.702;10.208;2023-12-20T03:08:04;2.90;;;1.50;;
64894;SDS011;51588;53.702;10.208;2023-12-20T03:10:31;2.07;;;1.23;;
64894;SDS011;51588;53.702;10.208;2023-12-20T03:12:58;2.17;;;1.40;;
64894;SDS011;51588;53.702;10.208;2023-12-20T03:15:25;2.73;;;1.53;;
64894;SDS011;51588;53.702;10.208;2023-12-20T03:17:51;3.63;;;1.73;;
64894;SDS011;51588;53.702;10.208;2023-12-20T03:20:18;2.57;;;1.27;;
64894;SDS011;51588;53.702;10.208;2023-12-20T03:22:44;2.60;;;1.50;;
64894;SDS011;51588;53.702;10.208;2023-12-20T03:25:11;2.77;;;1.57;;
64894;SDS011;51588;53.702;10.208;2023-12-20T03:27:37;2.60;;;1.27;;
64894;SDS011;51588;53.702;10.208;2023-12-20T03:30:06;2.77;;;1.40;;
64894;SDS011;51588;53.702;10.208;2023-12-20T03:32:33;2.23;;;1.20;;
64894;SDS011;51588;53.702;10.208;2023-12-20T03:34:59;1.53;;;1.17;;
64894;SDS011;51588;53.702;10.208;2023-12-20T03:37:26;3.40;;;1.77;;
64894;SDS011;51588;53.702;10.208;2023-12-20T03:39:52;2.00;;;1.10;;
64894;SDS011;51588;53.702;10.208;2023-12-20T03:42:19;2.80;;;1.50;;
64894;SDS011;51588;53.702;10.208;2023-12-20T03:44:45;3.17;;;1.27;;
64894;SDS011;51588;53.702;10.208;2023-12-20T03:47:13;1.97;;;1.30;;
64894;SDS011;51588;53.702;10.208;2023-12-20T03:49:39;4.10;;;1.60;;
64894;SDS011;51588;53.702;10.208;2023-12-20T03:52:06;2.37;;;1.10;;
64894;SDS011;51588;53.702;10.208;2023-12-20T03:54:32;2.60;;;1.30;;
64894;SDS011;51588;53.702;10.208;2023-12-20T03:56:59;3.00;;;1.30;;
64894;SDS011;51588;53.702;10.208;2023-12-20T03:59:25;2.20;;;1.10;;
64894;SDS011;51588;53.702;10.208;2023-12-20T04:01:52;3.60;;;1.30;;
64894;SDS011;51588;53.702;10.208;2023-12-20T04:04:21;2.30;;;1.17;;
64894;SDS011;51588;53.702;10.208;2023-12-20T04:06:47;1.47;;;1.10;;
64894;SDS011;51588;53.702;10.208;2023-12-20T04:09:13;3.13;;;1.47;;
64894;SDS011;51588;53.702;10.208;2023-12-20T04:11:40;1.80;;;1.07;;
64894;SDS011;51588;53.702;10.208;2023-12-20T04:14:06;3.27;;;1.23;;
64894;SDS011;51588;53.702;10.208;2023-12-20T04:16:33;2.70;;;1.37;;
64894;SDS011;51588;53.702;10.208;2023-12-20T04:19:01;2.90;;;1.60;;
64894;SDS011;51588;53.702;10.208;2023-12-20T04:21:28;2.70;;;1.50;;
64894;SDS011;51588;53.702;10.208;2023-12-20T04:23:55;2.33;;;1.23;;
64894;SDS011;51588;53.702;10.208;2023-12-20T04:26:21;2.80;;;1.60;;
64894;SDS011;51588;53.702;10.208;2023-12-20T04:28:48;4.10;;;1.53;;
64894;SDS011;51588;53.702;10.208;2023-12-20T04:31:14;1.57;;;1.10;;
64894;SDS011;51588;53.702;10.208;2023-12-20T04:33:41;2.73;;;1.20;;
64894;SDS011;51588;53.702;10.208;2023-12-20T04:36:07;1.90;;;1.17;;
64894;SDS011;51588;53.702;10.208;2023-12-20T04:38:35;3.67;;;1.37;;
64894;SDS011;51588;53.702;10.208;2023-12-20T04:41:02;2.00;;;1.03;;
64894;SDS011;51588;53.702;10.208;2023-12-20T04:43:28;2.03;;;1.30;;
64894;SDS011;51588;53.702;10.208;2023-12-20T04:45:55;2.90;;;1.27;;
64894;SDS011;51588;53.702;10.208;2023-12-20T04:48:21;3.73;;;1.43;;
64894;SDS011;51588;53.702;10.208;2023-12-20T04:50:48;2.40;;;1.30;;
64894;SDS011;51588;53.702;10.208;2023-12-20T04:53:14;1.93;;;1.20;;
64894;SDS011;51588;53.702;10.208;2023-12-20T04:55:42;5.63;;;1.80;;
64894;SDS011;51588;53.702;10.208;2023-12-20T04:58:08;3.13;;;1.30;;
64894;SDS011;51588;53.702;10.208;2023-12-20T05:00:35;2.43;;;1.10;;
64894;SDS011;51588;53.702;10.208;2023-12-20T05:03:01;2.90;;;1.20;;
64894;SDS011;51588;53.702;10.208;2023-12-20T05:05:28;2.70;;;1.20;;
64894;SDS011;51588;53.702;10.208;2023-12-20T05:07:54;2.83;;;1.20;;
64894;SDS011;51588;53.702;10.208;2023-12-20T05:10:21;1.90;;;1.33;;
64894;SDS011;51588;53.702;10.208;2023-12-20T05:12:48;2.57;;;1.30;;
64894;SDS011;51588;53.702;10.208;2023-12-20T05:15:15;2.47;;;1.20;;
64894;SDS011;51588;53.702;10.208;2023-12-20T05:17:41;2.30;;;1.40;;
64894;SDS011;51588;53.702;10.208;2023-12-20T05:20:08;3.27;;;1.77;;
64894;SDS011;51588;53.702;10.208;2023-12-20T05:22:34;3.03;;;1.03;;
64894;SDS011;51588;53.702;10.208;2023-12-20T05:25:01;3.23;;;1.30;;
64894;SDS011;51588;53.702;10.208;2023-12-20T05:27:27;2.40;;;1.20;;
64894;SDS011;51588;53.702;10.208;2023-12-20T05:29:55;2.20;;;1.10;;
64894;SDS011;51588;53.702;10.208;2023-12-20T05:32:22;1.90;;;1.10;;
64894;SDS011;51588;53.702;10.208;2023-12-20T05:34:49;3.00;;;1.33;;
64894;SDS011;51588;53.702;10.208;2023-12-20T05:37:15;2.67;;;1.20;;
64894;SDS011;51588;53.702;10.208;2023-12-20T05:39:41;2.23;;;1.20;;
64894;SDS011;51588;53.702;10.208;2023-12-20T05:42:08;2.13;;;1.20;;
64894;SDS011;51588;53.702;10.208;2023-12-20T05:44:34;2.23;;;1.10;;
64894;SDS011;51588;53.702;10.208;2023-12-20T05:47:03;1.53;;;1.17;;
64894;SDS011;51588;53.702;10.208;2023-12-20T05:49:29;2.13;;;1.33;;
64894;SDS011;51588;53.702;10.208;2023-12-20T05:51:56;2.23;;;1.23;;
64894;SDS011;51588;53.702;10.208;2023-12-20T05:54:23;2.83;;;1.40;;
64894;SDS011;51588;53.702;10.208;2023-12-20T05:56:49;2.17;;;1.20;;
64894;SDS011;51588;53.702;10.208;2023-12-20T05:59:15;2.50;;;1.07;;
64894;SDS011;51588;53.702;10.208;2023-12-20T06:01:42;2.10;;;1.13;;
64894;SDS011;51588;53.702;10.208;2023-12-20T06:04:10;3.30;;;1.60;;
64894;SDS011;51588;53.702;10.208;2023-12-20T06:06:40;6.00;;;1.50;;
64894;SDS011;51588;53.702;10.208;2023-12-20T06:09:06;2.10;;;1.20;;
64894;SDS011;51588;53.702;10.208;2023-12-20T06:11:32;3.80;;;1.57;;
64894;SDS011;51588;53.702;10.208;2023-12-20T06:13:59;5.30;;;1.33;;
64894;SDS011;51588;53.702;10.208;2023-12-20T06:16:26;2.97;;;1.60;;
64894;SDS011;51588;53.702;10.208;2023-12-20T06:18:52;14.77;;;2.87;;
64894;SDS011;51588;53.702;10.208;2023-12-20T06:21:20;16.63;;;4.17;;
64894;SDS011;51588;53.702;10.208;2023-12-20T06:23:46;9.40;;;2.93;;
64894;SDS011;51588;53.702;10.208;2023-12-20T06:26:13;6.60;;;2.47;;
64894;SDS011;51588;53.702;10.208;2023-12-20T06:28:39;9.23;;;2.90;;
64894;SDS011;51588;53.702;10.208;2023-12-20T06:31:05;7.93;;;2.30;;
64894;SDS011;51588;53.702;10.208;2023-12-20T06:33:32;6.63;;;2.20;;
64894;SDS011;51588;53.702;10.208;2023-12-20T06:35:58;12.83;;;2.60;;
64894;SDS011;51588;53.702;10.208;2023-12-20T06:38:26;9.37;;;2.83;;
64894;SDS011;51588;53.702;10.208;2023-12-20T06:40:53;10.50;;;3.47;;
64894;SDS011;51588;53.702;10.208;2023-12-20T06:43:20;16.93;;;3.77;;
64894;SDS011;51588;53.702;10.208;2023-12-20T06:45:46;20.67;;;3.57;;
64894;SDS011;51588;53.702;10.208;2023-12-20T06:48:13;17.10;;;3.10;;
64894;SDS011;51588;53.702;10.208;2023-12-20T06:50:39;13.83;;;3.60;;
64894;SDS011;51588;53.702;10.208;2023-12-20T06:53:06;8.87;;;2.90;;
64894;SDS011;51588;53.702;10.208;2023-12-20T06:55:34;13.37;;;2.97;;
64894;SDS011;51588;53.702;10.208;2023-12-20T06:58:01;25.30;;;4.27;;
64894;SDS011;51588;53.702;10.208;2023-12-20T07:00:27;13.73;;;3.30;;
64894;SDS011;51588;53.702;10.208;2023-12-20T07:02:54;13.10;;;2.97;;
64894;SDS011;51588;53.702;10.208;2023-12-20T07:05:21;10.33;;;3.00;;
64894;SDS011;51588;53.702;10.208;2023-12-20T07:07:47;9.17;;;2.70;;
64894;SDS011;51588;53.702;10.208;2023-12-20T07:10:14;9.10;;;2.60;;
64894;SDS011;51588;53.702;10.208;2023-12-20T07:12:41;9.70;;;3.07;;
64894;SDS011;51588;53.702;10.208;2023-12-20T07:15:09;9.30;;;2.23;;
64894;SDS011;51588;53.702;10.208;2023-12-20T07:17:35;9.83;;;2.10;;
64894;SDS011;51588;53.702;10.208;2023-12-20T07:20:02;6.83;;;2.30;;
64894;SDS011;51588;53.702;10.208;2023-12-20T07:22:29;9.37;;;2.50;;
64894;SDS011;51588;53.702;10.208;2023-12-20T07:24:56;8.60;;;2.40;;
64894;SDS011;51588;53.702;10.208;2023-12-20T07:27:23;5.63;;;2.60;;
64894;SDS011;51588;53.702;10.208;2023-12-20T07:29:50;5.10;;;2.00;;
64894;SDS011;51588;53.702;10.208;2023-12-20T07:32:17;6.13;;;1.97;;
64894;SDS011;51588;53.702;10.208;2023-12-20T07:34:43;6.83;;;2.37;;
64894;SDS011;51588;53.702;10.208;2023-12-20T07:37:10;7.53;;;2.10;;
64894;SDS011;51588;53.702;10.208;2023-12-20T07:39:37;5.33;;;1.93;;
64894;SDS011;51588;53.702;10.208;2023-12-20T07:42:03;4.33;;;2.10;;
64894;SDS011;51588;53.702;10.208;2023-12-20T07:44:30;9.00;;;2.00;;
64894;SDS011;51588;53.702;10.208;2023-12-20T07:46:57;7.10;;;2.20;;
64894;SDS011;51588;53.702;10.208;2023-12-20T07:49:23;5.90;;;2.30;;
64894;SDS011;51588;53.702;10.208;2023-12-20T07:51:49;8.30;;;2.57;;
64894;SDS011;51588;53.702;10.208;2023-12-20T07:54:16;7.30;;;2.50;;
64894;SDS011;51588;53.702;10.208;2023-12-20T07:56:42;6.27;;;2.40;;
64894;SDS011;51588;53.702;10.208;2023-12-20T07:59:09;7.57;;;2.40;;
64894;SDS011;51588;53.702;10.208;2023-12-20T08:01:35;6.53;;;2.83;;
64894;SDS011;51588;53.702;10.208;2023-12-20T08:04:03;6.33;;;2.37;;
64894;SDS011;51588;53.702;10.208;2023-12-20T08:06:29;5.70;;;2.10;;
64894;SDS011;51588;53.702;10.208;2023-12-20T08:08:56;5.80;;;2.20;;
64894;SDS011;51588;53.702;10.208;2023-12-20T08:11:22;5.87;;;2.17;;
64894;SDS011;51588;53.702;10.208;2023-12-20T08:13:48;6.20;;;2.30;;
64894;SDS011;51588;53.702;10.208;2023-12-20T08:16:15;7.20;;;2.17;;
64894;SDS011;51588;53.702;10.208;2023-12-20T08:18:42;7.03;;;2.30;;
64894;SDS011;51588;53.702;10.208;2023-12-20T08:21:10;10.37;;;3.00;;
64894;SDS011;51588;53.702;10.208;2023-12-20T08:23:37;7.63;;;2.10;;
64894;SDS011;51588;53.702;10.208;2023-12-20T08:26:04;6.40;;;2.33;;
64894;SDS011;51588;53.702;10.208;2023-12-20T08:28:30;8.13;;;2.40;;
64894;SDS011;51588;53.702;10.208;2023-12-20T08:30:57;11.57;;;2.37;;
64894;SDS011;51588;53.702;10.208;2023-12-20T08:33:23;10.33;;;2.40;;
64894;SDS011;51588;53.702;10.208;2023-12-20T08:35:50;10.57;;;2.43;;
64894;SDS011;51588;53.702;10.208;2023-12-20T08:38:18;12.33;;;2.50;;
64894;SDS011;51588;53.702;10.208;2023-12-20T08:40:44;6.77;;;1.80;;
64894;SDS011;51588;53.702;10.208;2023-12-20T08:43:11;8.33;;;2.37;;
64894;SDS011;51588;53.702;10.208;2023-12-20T08:45:37;11.83;;;2.17;;
64894;SDS011;51588;53.702;10.208;2023-12-20T08:48:04;8.53;;;2.40;;
64894;SDS011;51588;53.702;10.208;2023-12-20T08:50:31;5.60;;;2.07;;
64894;SDS011;51588;53.702;10.208;2023-12-20T08:52:57;7.33;;;2.00;;
64894;SDS011;51588;53.702;10.208;2023-12-20T08:55:25;12.90;;;2.23;;
64894;SDS011;51588;53.702;10.208;2023-12-20T08:57:53;10.23;;;2.73;;
64894;SDS011;51588;53.702;10.208;2023-12-20T09:00:19;6.07;;;2.03;;
64894;SDS011;51588;53.702;10.208;2023-12-20T09:02:49;5.60;;;2.53;;
64894;SDS011;51588;53.702;10.208;2023-12-20T09:05:15;9.07;;;2.40;;
64894;SDS011;51588;53.702;10.208;2023-12-20T09:07:42;4.67;;;1.70;;
64894;SDS011;51588;53.702;10.208;2023-12-20T09:10:08;7.70;;;2.00;;
64894;SDS011;51588;53.702;10.208;2023-12-20T09:12:36;7.07;;;1.93;;
64894;SDS011;51588;53.702;10.208;2023-12-20T09:15:13;7.40;;;2.10;;
64894;SDS011;51588;53.702;10.208;2023-12-20T09:17:40;7.33;;;2.07;;
64894;SDS011;51588;53.702;10.208;2023-12-20T09:20:07;8.47;;;2.80;;
64894;SDS011;51588;53.702;10.208;2023-12-20T09:22:33;5.77;;;1.90;;
64894;SDS011;51588;53.702;10.208;2023-12-20T09:25:00;5.27;;;1.73;;
64894;SDS011;51588;53.702;10.208;2023-12-20T09:27:27;7.70;;;1.83;;
64894;SDS011;51588;53.702;10.208;2023-12-20T09:29:54;3.73;;;2.20;;
64894;SDS011;51588;53.702;10.208;2023-12-20T09:32:21;5.47;;;2.00;;
64894;SDS011;51588;53.702;10.208;2023-12-20T09:34:47;7.00;;;1.60;;
64894;SDS011;51588;53.702;10.208;2023-12-20T09:37:14;5.53;;;1.80;;
64894;SDS011;51588;53.702;10.208;2023-12-20T09:39:40;3.83;;;2.00;;
64894;SDS011;51588;53.702;10.208;2023-12-20T09:42:07;7.03;;;1.70;;
64894;SDS011;51588;53.702;10.208;2023-12-20T09:44:34;3.10;;;1.97;;
64894;SDS011;51588;53.702;10.208;2023-12-20T09:47:03;3.60;;;1.60;;
64894;SDS011;51588;53.702;10.208;2023-12-20T09:49:30;5.67;;;1.40;;
64894;SDS011;51588;53.702;10.208;2023-12-20T09:51:56;3.20;;;1.50;;
64894;SDS011;51588;53.702;10.208;2023-12-20T09:54:23;3.70;;;1.80;;
64894;SDS011;51588;53.702;10.208;2023-12-20T09:56:50;4.30;;;1.30;;
64894;SDS011;51588;53.702;10.208;2023-12-20T09:59:16;4.60;;;1.53;;
64894;SDS011;51588;53.702;10.208;2023-12-20T10:01:43;3.93;;;1.53;;
64894;SDS011;51588;53.702;10.208;2023-12-20T10:04:12;4.80;;;1.40;;
64894;SDS011;51588;53.702;10.208;2023-12-20T10:06:39;3.50;;;1.40;;
64894;SDS011;51588;53.702;10.208;2023-12-20T10:09:06;1.90;;;1.10;;
64894;SDS011;51588;53.702;10.208;2023-12-20T10:11:32;2.53;;;1.20;;
64894;SDS011;51588;53.702;10.208;2023-12-20T10:14:02;6.47;;;1.53;;
64894;SDS011;51588;53.702;10.208;2023-12-20T10:16:29;2.90;;;1.10;;
64894;SDS011;51588;53.702;10.208;2023-12-20T10:18:55;4.40;;;1.57;;
64894;SDS011;51588;53.702;10.208;2023-12-20T10:21:23;3.37;;;1.30;;
64894;SDS011;51588;53.702;10.208;2023-12-20T10:23:51;2.63;;;1.30;;
64894;SDS011;51588;53.702;10.208;2023-12-20T10:26:20;11.83;;;1.60;;
64894;SDS011;51588;53.702;10.208;2023-12-20T10:28:50;4.53;;;1.30;;
64894;SDS011;51588;53.702;10.208;2023-12-20T10:31:25;3.67;;;1.20;;
64894;SDS011;51588;53.702;10.208;2023-12-20T10:33:52;2.83;;;1.10;;
64894;SDS011;51588;53.702;10.208;2023-12-20T10:36:18;2.60;;;1.07;;
64894;SDS011;51588;53.702;10.208;2023-12-20T10:38:46;4.23;;;0.80;;
64894;SDS011;51588;53.702;10.208;2023-12-20T10:41:14;1.70;;;0.90;;
64894;SDS011;51588;53.702;10.208;2023-12-20T10:43:42;1.93;;;0.87;;
64894;SDS011;51588;53.702;10.208;2023-12-20T10:46:09;2.40;;;0.97;;
64894;SDS011;51588;53.702;10.208;2023-12-20T10:48:35;2.10;;;1.10;;
64894;SDS011;51588;53.702;10.208;2023-12-20T10:51:02;2.70;;;1.10;;
64894;SDS011;51588;53.702;10.208;2023-12-20T10:53:30;2.20;;;1.00;;
64894;SDS011;51588;53.702;10.208;2023-12-20T10:55:58;2.00;;;1.20;;
64894;SDS011;51588;53.702;10.208;2023-12-20T10:58:26;2.20;;;1.00;;
64894;SDS011;51588;53.702;10.208;2023-12-20T11:00:55;3.80;;;1.27;;
64894;SDS011;51588;53.702;10.208;2023-12-20T11:03:23;2.47;;;1.00;;
64894;SDS011;51588;53.702;10.208;2023-12-20T11:05:51;1.57;;;0.97;;
64894;SDS011;51588;53.702;10.208;2023-12-20T11:08:20;62.20;;;40.13;;
64894;SDS011;51588;53.702;10.208;2023-12-20T11:10:49;420.50;;;305.20;;
64894;SDS011;51588;53.702;10.208;2023-12-20T11:13:21;475.83;;;379.90;;
64894;SDS011;51588;53.702;10.208;2023-12-20T11:15:48;515.30;;;436.17;;
64894;SDS011;51588;53.702;10.208;2023-12-20T11:18:15;487.43;;;391.40;;
64894;SDS011;51588;53.702;10.208;2023-12-20T11:20:41;493.70;;;399.37;;
64894;SDS011;51588;53.702;10.208;2023-12-20T11:23:08;579.73;;;498.10;;
64894;SDS011;51588;53.702;10.208;2023-12-20T11:25:48;585.70;;;521.30;;
64894;SDS011;51588;53.702;10.208;2023-12-20T11:28:13;547.23;;;466.03;;
64894;SDS011;51588;53.702;10.208;2023-12-20T11:30:42;613.17;;;544.83;;
64894;SDS011;51588;53.702;10.208;2023-12-20T11:33:09;605.30;;;531.20;;
64894;SDS011;51588;53.702;10.208;2023-12-20T11:35:35;590.00;;;520.10;;
64894;SDS011;51588;53.702;10.208;2023-12-20T11:38:02;575.43;;;496.87;;
64894;SDS011;51588;53.702;10.208;2023-12-20T11:40:29;570.40;;;494.20;;
64894;SDS011;51588;53.702;10.208;2023-12-20T11:42:59;567.53;;;484.47;;
64894;SDS011;51588;53.702;10.208;2023-12-20T11:45:26;626.90;;;552.47;;
64894;SDS011;51588;53.702;10.208;2023-12-20T11:47:54;635.63;;;554.87;;
64894;SDS011;51588;53.702;10.208;2023-12-20T11:50:20;631.47;;;558.40;;
64894;SDS011;51588;53.702;10.208;2023-12-20T11:52:47;619.23;;;539.27;;
64894;SDS011;51588;53.702;10.208;2023-12-20T11:55:14;629.40;;;549.77;;
64894;SDS011;51588;53.702;10.208;2023-12-20T11:57:41;656.50;;;582.20;;
64894;SDS011;51588;53.702;10.208;2023-12-20T12:00:08;744.53;;;649.97;;
64894;SDS011;51588;53.702;10.208;2023-12-20T12:02:34;764.90;;;665.63;;
64894;SDS011;51588;53.702;10.208;2023-12-20T12:05:02;764.30;;;668.77;;
64894;SDS011;51588;53.702;10.208;2023-12-20T12:07:30;756.03;;;655.73;;
64894;SDS011;51588;53.702;10.208;2023-12-20T12:09:56;751.00;;;642.30;;
64894;SDS011;51588;53.702;10.208;2023-12-20T12:12:23;750.33;;;634.43;;
64894;SDS011;51588;53.702;10.208;2023-12-20T12:14:50;711.97;;;614.67;;
64894;SDS011;51588;53.702;10.208;2023-12-20T12:17:17;698.53;;;593.33;;
64894;SDS011;51588;53.702;10.208;2023-12-20T12:19:43;674.20;;;571.87;;
64894;SDS011;51588;53.702;10.208;2023-12-20T12:22:12;685.83;;;562.53;;
64894;SDS011;51588;53.702;10.208;2023-12-20T12:24:39;648.00;;;541.00;;
64894;SDS011;51588;53.702;10.208;2023-12-20T12:27:05;631.70;;;520.80;;
64894;SDS011;51588;53.702;10.208;2023-12-20T12:29:32;616.40;;;509.77;;
64894;SDS011;51588;53.702;10.208;2023-12-20T12:31:59;597.23;;;495.67;;
64894;SDS011;51588;53.702;10.208;2023-12-20T12:34:26;587.63;;;478.07;;
64894;SDS011;51588;53.702;10.208;2023-12-20T12:36:53;584.73;;;466.00;;
64894;SDS011;51588;53.702;10.208;2023-12-20T12:39:21;571.33;;;451.57;;
64894;SDS011;51588;53.702;10.208;2023-12-20T12:41:49;551.27;;;441.27;;
64894;SDS011;51588;53.702;10.208;2023-12-20T12:44:16;545.37;;;422.20;;
64894;SDS011;51588;53.702;10.208;2023-12-20T12:46:42;539.90;;;407.83;;
64894;SDS011;51588;53.702;10.208;2023-12-20T12:49:09;517.50;;;384.27;;
64894;SDS011;51588;53.702;10.208;2023-12-20T12:51:35;510.90;;;376.87;;
64894;SDS011;51588;53.702;10.208;2023-12-20T12:54:02;486.63;;;356.90;;
64894;SDS011;51588;53.702;10.208;2023-12-20T12:56:30;480.00;;;351.00;;
64894;SDS011;51588;53.702;10.208;2023-12-20T12:58:56;488.03;;;354.33;;
64894;SDS011;51588;53.702;10.208;2023-12-20T13:01:23;474.07;;;337.47;;
64894;SDS011;51588;53.702;10.208;2023-12-20T13:03:49;454.47;;;312.80;;
64894;SDS011;51588;53.702;10.208;2023-12-20T13:06:16;450.77;;;306.30;;
64894;SDS011;51588;53.702;10.208;2023-12-20T13:08:42;431.43;;;291.90;;
64894;SDS011;51588;53.702;10.208;2023-12-20T13:11:10;431.60;;;284.03;;
64894;SDS011;51588;53.702;10.208;2023-12-20T13:13:38;405.80;;;272.90;;
64894;SDS011;51588;53.702;10.208;2023-12-20T13:16:04;404.53;;;273.10;;
64894;SDS011;51588;53.702;10.208;2023-12-20T13:18:31;404.87;;;260.87;;
64894;SDS011;51588;53.702;10.208;2023-12-20T13:20:57;384.97;;;246.67;;
64894;SDS011;51588;53.702;10.208;2023-12-20T13:23:24;368.97;;;241.77;;
64894;SDS011;51588;53.702;10.208;2023-12-20T13:25:50;357.50;;;226.43;;
64894;SDS011;51588;53.702;10.208;2023-12-20T13:28:17;340.60;;;221.30;;
64894;SDS011;51588;53.702;10.208;2023-12-20T13:30:45;331.90;;;213.00;;
64894;SDS011;51588;53.702;10.208;2023-12-20T13:33:11;327.13;;;212.20;;
64894;SDS011;51588;53.702;10.208;2023-12-20T13:35:37;294.23;;;184.87;;
64894;SDS011;51588;53.702;10.208;2023-12-20T13:38:04;281.80;;;173.47;;
64894;SDS011;51588;53.702;10.208;2023-12-20T13:40:32;268.47;;;168.70;;
64894;SDS011;51588;53.702;10.208;2023-12-20T13:42:59;271.23;;;167.60;;
64894;SDS011;51588;53.702;10.208;2023-12-20T13:45:25;250.73;;;153.00;;
64894;SDS011;51588;53.702;10.208;2023-12-20T13:47:53;264.90;;;155.27;;
64894;SDS011;51588;53.702;10.208;2023-12-20T13:50:20;241.20;;;145.37;;
64894;SDS011;51588;53.702;10.208;2023-12-20T13:52:47;222.23;;;139.90;;
64894;SDS011;51588;53.702;10.208;2023-12-20T13:55:13;224.50;;;139.20;;
64894;SDS011;51588;53.702;10.208;2023-12-20T13:57:39;209.63;;;129.57;;
64894;SDS011;51588;53.702;10.208;2023-12-20T14:00:07;211.83;;;130.53;;
64894;SDS011;51588;53.702;10.208;2023-12-20T14:02:40;187.77;;;116.67;;
64894;SDS011;51588;53.702;10.208;2023-12-20T14:05:07;186.20;;;114.90;;
64894;SDS011;51588;53.702;10.208;2023-12-20T14:07:34;176.37;;;109.03;;
64894;SDS011;51588;53.702;10.208;2023-12-20T14:10:00;174.50;;;109.33;;
64894;SDS011;51588;53.702;10.208;2023-12-20T14:12:27;159.13;;;100.30;;
64894;SDS011;51588;53.702;10.208;2023-12-20T14:14:53;152.33;;;93.20;;
64894;SDS011;51588;53.702;10.208;2023-12-20T14:17:21;148.23;;;90.83;;
64894;SDS011;51588;53.702;10.208;2023-12-20T14:19:47;144.73;;;88.10;;